createdAt,value
2022-11-27T00:01:20.750Z,144.60
2022-11-27T00:03:49.447Z,243.70
2022-11-27T00:06:19.338Z,201.23
2022-11-27T00:08:47.947Z,100.80
2022-11-27T00:11:20.353Z,170.73
2022-11-27T00:13:48.904Z,278.48
2022-11-27T00:16:18.288Z,141.00
2022-11-27T00:18:46.608Z,152.80
2022-11-27T00:21:16.513Z,187.70
2022-11-27T00:23:44.890Z,166.27
2022-11-27T00:26:15.537Z,191.00
2022-11-27T00:28:44.965Z,161.43
2022-11-27T00:31:15.412Z,212.25
2022-11-27T00:33:44.022Z,171.00
2022-11-27T00:36:12.973Z,245.77
2022-11-27T00:38:41.260Z,215.38
2022-11-27T00:41:10.671Z,179.88
2022-11-27T00:43:44.500Z,202.18
2022-11-27T00:46:15.084Z,184.15
2022-11-27T00:48:43.675Z,192.50
2022-11-27T00:51:13.673Z,214.15
2022-11-27T00:53:42.190Z,173.07
2022-11-27T00:56:11.337Z,189.15
2022-11-27T00:58:39.362Z,127.70
2022-11-27T01:01:08.641Z,146.93
2022-11-27T01:03:38.007Z,155.40
2022-11-27T01:06:07.738Z,128.43
2022-11-27T01:08:35.985Z,145.30
2022-11-27T01:11:04.169Z,115.07
2022-11-27T01:13:34.808Z,77.80
2022-11-27T01:16:04.367Z,106.78
2022-11-27T01:18:32.771Z,89.63
2022-11-27T01:21:03.578Z,86.68
2022-11-27T01:23:32.063Z,99.65
2022-11-27T01:26:01.486Z,115.13
2022-11-27T01:28:29.574Z,119.90
2022-11-27T01:30:57.919Z,54.50
2022-11-27T01:33:26.404Z,105.05
2022-11-27T01:35:56.343Z,53.53
2022-11-27T01:38:26.441Z,97.38
2022-11-27T01:40:58.753Z,96.00
2022-11-27T01:43:44.510Z,73.57
2022-11-27T01:46:19.693Z,58.90
2022-11-27T01:48:48.602Z,56.80
2022-11-27T01:51:16.926Z,58.83
2022-11-27T01:53:47.145Z,53.95
2022-11-27T01:56:16.816Z,53.22
2022-11-27T01:58:45.120Z,59.22
2022-11-27T02:01:13.253Z,58.60
2022-11-27T02:03:41.561Z,50.53
2022-11-27T02:06:13.260Z,52.70
2022-11-27T02:08:42.653Z,55.78
2022-11-27T02:11:16.512Z,50.10
2022-11-27T02:13:49.608Z,52.95
2022-11-27T02:16:25.910Z,52.45
2022-11-27T02:18:59.900Z,51.58
2022-11-27T02:21:37.843Z,50.88
2022-11-27T02:24:32.555Z,47.60
2022-11-27T02:27:24.204Z,46.85
2022-11-27T02:29:58.097Z,48.47
2022-11-27T02:32:30.808Z,50.35
2022-11-27T02:35:05.227Z,46.20
2022-11-27T02:37:38.321Z,43.45
2022-11-27T02:40:12.008Z,41.75
2022-11-27T02:42:45.868Z,44.05
2022-11-27T02:45:18.606Z,40.47
2022-11-27T02:47:48.893Z,38.75
2022-11-27T02:50:20.868Z,39.40
2022-11-27T02:52:52.015Z,36.90
2022-11-27T02:55:25.796Z,39.72
2022-11-27T02:57:56.860Z,38.25
2022-11-27T03:00:26.460Z,35.88
2022-11-27T03:02:59.022Z,43.08
2022-11-27T03:05:31.747Z,43.50
2022-11-27T03:08:04.249Z,36.75
2022-11-27T03:10:37.496Z,34.17
2022-11-27T03:13:05.646Z,35.55
2022-11-27T03:15:42.507Z,38.20
2022-11-27T03:18:22.338Z,43.92
2022-11-27T03:20:57.395Z,37.17
2022-11-27T03:23:25.502Z,40.55
2022-11-27T03:25:53.580Z,35.33
2022-11-27T03:28:22.434Z,36.50
2022-11-27T03:30:52.017Z,38.03
2022-11-27T03:33:20.213Z,35.33
2022-11-27T03:35:48.296Z,34.80
2022-11-27T03:38:16.406Z,37.22
2022-11-27T03:40:49.979Z,41.63
2022-11-27T03:43:24.269Z,36.67
2022-11-27T03:48:34.018Z,37.15
2022-11-27T03:51:10.574Z,33.25
2022-11-27T03:53:49.420Z,36.42
2022-11-27T03:56:31.407Z,35.85
2022-11-27T03:59:04.729Z,40.28
2022-11-27T04:01:34.349Z,29.50
2022-11-27T04:04:02.546Z,29.77
2022-11-27T04:06:30.569Z,37.33
2022-11-27T04:08:58.738Z,29.38
2022-11-27T04:11:27.637Z,30.63
2022-11-27T04:13:55.765Z,32.30
2022-11-27T04:16:24.367Z,29.25
2022-11-27T04:18:54.010Z,32.00
2022-11-27T04:21:22.259Z,36.00
2022-11-27T04:23:50.277Z,32.70
2022-11-27T04:26:18.328Z,33.72
2022-11-27T04:28:46.381Z,30.70
2022-11-27T04:31:14.477Z,32.67
2022-11-27T04:33:42.561Z,34.72
2022-11-27T04:36:12.021Z,32.78
2022-11-27T04:38:40.273Z,32.97
2022-11-27T04:41:08.354Z,31.55
2022-11-27T04:43:36.442Z,29.15
2022-11-27T04:46:04.540Z,32.28
2022-11-27T04:48:32.712Z,29.20
2022-11-27T04:51:00.853Z,28.88
2022-11-27T04:53:30.260Z,32.45
2022-11-27T04:55:59.343Z,43.25
2022-11-27T04:58:27.404Z,66.75
2022-11-27T05:00:55.791Z,73.00
2022-11-27T05:03:24.051Z,67.60
2022-11-27T05:05:57.342Z,58.95
2022-11-27T05:08:26.227Z,55.67
2022-11-27T05:11:03.351Z,79.65
2022-11-27T05:13:31.689Z,76.53
2022-11-27T05:15:59.872Z,79.97
2022-11-27T05:18:28.150Z,66.78
2022-11-27T05:20:59.656Z,77.00
2022-11-27T05:23:28.553Z,74.40
2022-11-27T05:25:56.769Z,51.65
2022-11-27T05:28:27.252Z,37.40
2022-11-27T05:30:55.724Z,32.75
2022-11-27T05:33:23.903Z,29.10
2022-11-27T05:35:52.042Z,31.15
2022-11-27T05:38:20.048Z,31.75
2022-11-27T05:40:48.087Z,30.70
2022-11-27T05:43:16.164Z,29.13
2022-11-27T05:45:46.005Z,32.83
2022-11-27T05:48:14.087Z,26.67
2022-11-27T05:50:42.266Z,29.25
2022-11-27T05:53:10.307Z,30.52
2022-11-27T05:55:38.315Z,30.45
2022-11-27T05:58:06.467Z,26.88
2022-11-27T06:00:34.522Z,27.33
2022-11-27T06:03:04.371Z,28.20
2022-11-27T06:05:32.786Z,29.92
2022-11-27T06:08:00.801Z,30.13
2022-11-27T06:10:28.863Z,28.70
2022-11-27T06:12:57.039Z,29.35
2022-11-27T06:15:25.300Z,31.65
2022-11-27T06:17:53.299Z,28.63
2022-11-27T06:20:23.826Z,26.88
2022-11-27T06:22:52.199Z,25.55
2022-11-27T06:25:20.241Z,51.85
2022-11-27T06:27:48.272Z,51.70
2022-11-27T06:30:16.881Z,26.98
2022-11-27T06:32:44.982Z,26.45
2022-11-27T06:35:13.070Z,31.55
2022-11-27T06:37:42.483Z,29.88
2022-11-27T06:40:11.111Z,40.90
2022-11-27T06:42:39.184Z,54.97
2022-11-27T06:45:08.389Z,41.65
2022-11-27T06:47:36.458Z,38.40
2022-11-27T06:50:04.718Z,33.90
2022-11-27T06:52:37.164Z,47.40
2022-11-27T06:55:09.988Z,44.72
2022-11-27T06:57:38.074Z,33.63
2022-11-27T07:00:07.741Z,28.98
2022-11-27T07:02:35.852Z,27.75
2022-11-27T07:05:03.924Z,25.45
2022-11-27T07:07:32.108Z,24.80
2022-11-27T07:10:00.230Z,22.50
2022-11-27T07:12:29.646Z,61.45
2022-11-27T07:15:01.643Z,59.53
2022-11-27T07:17:32.111Z,55.10
2022-11-27T07:20:00.293Z,47.42
2022-11-27T07:22:28.317Z,39.80
2022-11-27T07:24:56.338Z,35.28
2022-11-27T07:27:24.713Z,48.40
2022-11-27T07:29:54.156Z,35.70
2022-11-27T07:32:22.263Z,25.75
2022-11-27T07:34:50.251Z,27.52
2022-11-27T07:37:18.417Z,26.13
2022-11-27T07:40:01.897Z,22.52
2022-11-27T07:45:09.438Z,22.00
2022-11-27T07:47:37.920Z,25.05
2022-11-27T07:50:08.454Z,29.08
2022-11-27T07:52:41.410Z,27.75
2022-11-27T07:55:11.037Z,22.13
2022-11-27T07:57:39.066Z,22.52
2022-11-27T08:00:10.247Z,19.55
2022-11-27T08:02:38.564Z,24.02
2022-11-27T08:05:12.429Z,21.65
2022-11-27T08:07:41.916Z,24.75
2022-11-27T08:10:10.305Z,23.10
2022-11-27T08:12:38.326Z,30.75
2022-11-27T08:15:09.069Z,19.70
2022-11-27T08:17:37.756Z,20.85
2022-11-27T08:20:07.065Z,28.20
2022-11-27T08:22:35.152Z,44.28
2022-11-27T08:25:03.521Z,42.72
2022-11-27T08:27:32.688Z,34.22
2022-11-27T08:30:01.171Z,35.50
2022-11-27T08:32:30.603Z,29.80
2022-11-27T08:34:58.758Z,29.33
2022-11-27T08:37:27.369Z,24.20
2022-11-27T08:39:55.444Z,26.33
2022-11-27T08:42:23.457Z,30.20
2022-11-27T08:44:51.649Z,31.65
2022-11-27T08:47:19.989Z,24.38
2022-11-27T08:49:49.620Z,18.30
2022-11-27T08:52:17.734Z,21.60
2022-11-27T08:54:45.817Z,18.70
2022-11-27T08:57:13.852Z,20.60
2022-11-27T08:59:41.872Z,19.70
2022-11-27T09:02:12.631Z,19.05
2022-11-27T09:04:40.893Z,18.30
2022-11-27T09:07:14.218Z,17.98
2022-11-27T09:09:42.655Z,23.50
2022-11-27T09:12:10.698Z,23.17
2022-11-27T09:14:39.952Z,28.55
2022-11-27T09:17:08.329Z,27.85
2022-11-27T09:19:36.712Z,27.60
2022-11-27T09:22:04.771Z,29.27
2022-11-27T09:24:34.366Z,27.15
2022-11-27T09:27:02.385Z,29.50
2022-11-27T09:29:30.375Z,20.95
2022-11-27T09:31:58.637Z,22.10
2022-11-27T09:34:26.685Z,19.85
2022-11-27T09:36:54.723Z,19.27
2022-11-27T09:39:23.266Z,47.60
2022-11-27T09:41:56.047Z,22.85
2022-11-27T09:44:30.961Z,35.75
2022-11-27T09:47:06.130Z,73.38
2022-11-27T09:49:42.409Z,17.30
2022-11-27T09:52:18.884Z,16.60
2022-11-27T09:54:55.016Z,20.40
2022-11-27T09:57:29.527Z,16.35
2022-11-27T10:02:31.666Z,19.77
2022-11-27T10:05:17.618Z,18.73
2022-11-27T10:08:09.176Z,20.38
2022-11-27T10:10:44.842Z,16.20
2022-11-27T10:13:29.414Z,18.88
2022-11-27T10:16:02.417Z,20.85
2022-11-27T10:18:36.552Z,19.63
2022-11-27T10:21:10.915Z,19.08
2022-11-27T10:23:47.924Z,15.75
2022-11-27T10:26:20.188Z,14.55
2022-11-27T10:28:58.578Z,15.18
2022-11-27T10:31:36.515Z,15.90
2022-11-27T10:34:08.403Z,16.23
2022-11-27T10:36:40.316Z,18.95
2022-11-27T10:39:16.622Z,24.25
2022-11-27T10:41:51.383Z,19.58
2022-11-27T10:44:28.323Z,19.77
2022-11-27T10:47:02.438Z,20.63
2022-11-27T10:49:30.583Z,23.20
2022-11-27T10:51:58.755Z,18.33
2022-11-27T10:54:29.509Z,17.85
2022-11-27T10:57:13.006Z,14.18
2022-11-27T10:59:47.897Z,16.05
2022-11-27T11:02:31.229Z,18.70
2022-11-27T11:05:30.806Z,16.13
2022-11-27T11:07:59.563Z,17.85
2022-11-27T11:10:31.510Z,21.23
2022-11-27T11:13:07.772Z,16.38
2022-11-27T11:15:51.608Z,18.83
2022-11-27T11:18:20.911Z,33.45
2022-11-27T11:20:51.353Z,20.35
2022-11-27T11:23:23.371Z,16.15
2022-11-27T11:25:54.712Z,15.60
2022-11-27T11:28:23.556Z,16.05
2022-11-27T11:30:59.529Z,14.38
2022-11-27T11:33:28.906Z,22.30
2022-11-27T11:36:02.569Z,18.42
2022-11-27T11:38:33.467Z,17.93
2022-11-27T11:41:05.888Z,27.73
2022-11-27T11:43:35.830Z,17.83
2022-11-27T11:46:17.975Z,14.32
2022-11-27T11:49:04.160Z,13.05
2022-11-27T11:51:54.785Z,11.02
2022-11-27T11:54:50.716Z,11.32
2022-11-27T11:57:59.008Z,11.30
2022-11-27T12:00:58.606Z,10.90
2022-11-27T12:03:40.669Z,8.18
2022-11-27T12:06:39.633Z,7.40
2022-11-27T12:09:27.497Z,6.88
2022-11-27T12:12:06.883Z,7.07
2022-11-27T12:14:45.659Z,6.20
2022-11-27T12:17:28.733Z,7.70
2022-11-27T12:20:27.853Z,6.55
2022-11-27T12:23:22.251Z,8.15
2022-11-27T12:26:05.607Z,8.60
2022-11-27T12:29:12.466Z,5.93
2022-11-27T12:32:00.785Z,7.03
2022-11-27T12:34:42.271Z,8.02
2022-11-27T12:37:25.638Z,9.75
2022-11-27T12:40:11.361Z,10.75
2022-11-27T12:42:51.753Z,8.73
2022-11-27T12:45:23.086Z,7.65
2022-11-27T12:47:57.982Z,8.20
2022-11-27T12:50:33.736Z,7.95
2022-11-27T12:53:15.410Z,9.77
2022-11-27T12:55:51.591Z,10.85
2022-11-27T12:58:27.079Z,8.93
2022-11-27T13:01:04.619Z,8.50
2022-11-27T13:03:40.223Z,8.60
2022-11-27T13:06:13.346Z,9.68
2022-11-27T13:08:52.568Z,12.98
2022-11-27T13:11:25.113Z,14.25
2022-11-27T13:13:58.833Z,14.15
2022-11-27T13:16:32.606Z,14.70
2022-11-27T13:19:07.161Z,13.48
2022-11-27T13:21:36.857Z,13.50
2022-11-27T13:24:06.980Z,12.63
2022-11-27T13:26:42.552Z,16.10
2022-11-27T13:29:20.749Z,11.30
2022-11-27T13:31:55.366Z,11.70
2022-11-27T13:36:59.319Z,14.40
2022-11-27T13:39:32.056Z,16.27
2022-11-27T13:42:07.253Z,23.30
2022-11-27T13:44:40.118Z,27.60
2022-11-27T13:47:13.394Z,34.58
2022-11-27T13:49:43.361Z,35.33
2022-11-27T13:52:14.687Z,37.35
2022-11-27T13:54:54.797Z,22.13
2022-11-27T13:57:24.130Z,25.30
2022-11-27T14:00:00.920Z,21.98
2022-11-27T14:02:42.396Z,18.02
2022-11-27T14:05:11.923Z,16.63
2022-11-27T14:07:43.083Z,14.40
2022-11-27T14:10:16.742Z,20.20
2022-11-27T14:12:55.963Z,15.98
2022-11-27T14:15:27.439Z,17.10
2022-11-27T14:18:06.749Z,21.27
2022-11-27T14:20:38.924Z,29.13
2022-11-27T14:23:12.398Z,17.27
2022-11-27T14:25:42.623Z,20.35
2022-11-27T14:28:16.330Z,19.95
2022-11-27T14:30:49.269Z,31.43
2022-11-27T14:33:20.282Z,48.35
2022-11-27T14:35:53.163Z,44.00
2022-11-27T14:38:21.637Z,68.07
2022-11-27T14:40:53.318Z,40.03
2022-11-27T14:43:26.112Z,64.55
2022-11-27T14:45:56.001Z,37.35
2022-11-27T14:48:25.911Z,31.70
2022-11-27T14:50:55.828Z,49.33
2022-11-27T14:53:26.365Z,40.45
2022-11-27T14:55:58.068Z,31.17
2022-11-27T14:58:28.694Z,51.15
2022-11-27T15:01:04.545Z,39.70
2022-11-27T15:03:33.004Z,102.95
2022-11-27T15:06:03.999Z,94.07
2022-11-27T15:08:36.094Z,117.50
2022-11-27T15:11:06.846Z,74.97
2022-11-27T15:13:36.855Z,72.88
2022-11-27T15:16:08.092Z,99.82
2022-11-27T15:18:38.260Z,76.88
2022-11-27T15:21:12.031Z,77.50
2022-11-27T15:23:45.955Z,86.47
2022-11-27T15:26:27.110Z,129.30
2022-11-27T15:28:57.425Z,102.50
2022-11-27T15:31:29.620Z,108.30
2022-11-27T15:34:03.679Z,164.10
2022-11-27T15:36:41.892Z,165.48
2022-11-27T15:39:23.235Z,107.60
2022-11-27T15:41:55.212Z,99.57
2022-11-27T15:44:23.940Z,98.35
2022-11-27T15:46:53.393Z,161.35
2022-11-27T15:49:22.999Z,152.23
2022-11-27T15:51:51.943Z,103.05
2022-11-27T15:54:20.297Z,179.35
2022-11-27T15:56:48.393Z,130.57
2022-11-27T15:59:20.597Z,192.07
2022-11-27T16:01:49.396Z,149.13
2022-11-27T16:04:17.822Z,126.60
2022-11-27T16:06:46.508Z,139.43
2022-11-27T16:09:15.007Z,106.82
2022-11-27T16:11:44.179Z,132.38
2022-11-27T16:14:12.438Z,133.63
2022-11-27T16:16:42.473Z,196.38
2022-11-27T16:19:12.425Z,165.82
2022-11-27T16:21:40.870Z,116.32
2022-11-27T16:24:11.762Z,119.10
2022-11-27T16:26:40.004Z,151.43
2022-11-27T16:29:08.880Z,96.72
2022-11-27T16:31:38.005Z,92.35
2022-11-27T16:34:07.613Z,72.20
2022-11-27T16:36:35.685Z,108.75
2022-11-27T16:39:03.929Z,86.78
2022-11-27T16:41:32.273Z,93.07
2022-11-27T16:44:00.496Z,81.65
2022-11-27T16:46:31.421Z,87.20
2022-11-27T16:49:01.420Z,98.13
2022-11-27T16:51:33.904Z,96.43
2022-11-27T16:54:04.145Z,52.15
2022-11-27T16:56:33.998Z,136.32
2022-11-27T16:59:08.642Z,87.43
2022-11-27T17:01:38.364Z,119.93
2022-11-27T17:04:09.028Z,76.30
2022-11-27T17:06:39.894Z,143.00
2022-11-27T17:09:09.188Z,241.45
2022-11-27T17:11:39.096Z,101.75
2022-11-27T17:14:09.041Z,150.45
2022-11-27T17:16:38.943Z,156.63
2022-11-27T17:19:07.128Z,111.60
2022-11-27T17:21:36.380Z,153.60
2022-11-27T17:24:13.185Z,108.97
2022-11-27T17:26:45.164Z,116.43
2022-11-27T17:29:15.161Z,52.78
2022-11-27T17:31:44.190Z,115.25
2022-11-27T17:34:15.011Z,111.00
2022-11-27T17:36:45.359Z,74.97
2022-11-27T17:39:16.434Z,57.78
2022-11-27T17:41:45.296Z,98.55
2022-11-27T17:44:13.834Z,66.60
2022-11-27T17:46:45.094Z,56.95
2022-11-27T17:49:13.764Z,66.25
2022-11-27T17:51:42.008Z,71.75
2022-11-27T17:54:11.641Z,83.50
2022-11-27T17:56:41.555Z,76.70
2022-11-27T17:59:10.886Z,58.28
2022-11-27T18:01:40.603Z,50.30
2022-11-27T18:04:10.430Z,74.93
2022-11-27T18:06:39.817Z,52.00
2022-11-27T18:09:11.132Z,48.30
2022-11-27T18:11:39.534Z,47.83
2022-11-27T18:14:09.038Z,60.40
2022-11-27T18:16:39.154Z,54.58
2022-11-27T18:19:10.064Z,47.75
2022-11-27T18:21:39.507Z,58.90
2022-11-27T18:24:24.025Z,54.58
2022-11-27T18:27:07.773Z,47.10
2022-11-27T18:29:39.842Z,61.63
2022-11-27T18:32:08.388Z,58.78
2022-11-27T18:34:36.658Z,60.95
2022-11-27T18:37:05.153Z,56.90
2022-11-27T18:39:33.522Z,57.45
2022-11-27T18:42:01.629Z,52.15
2022-11-27T18:44:30.183Z,71.35
2022-11-27T18:47:01.073Z,100.13
2022-11-27T18:49:30.024Z,52.15
2022-11-27T18:51:58.523Z,70.65
2022-11-27T18:54:26.770Z,45.97
2022-11-27T18:56:55.048Z,50.92
2022-11-27T18:59:24.098Z,78.05
2022-11-27T19:01:54.242Z,65.72
2022-11-27T19:04:23.826Z,68.22
2022-11-27T19:06:52.271Z,63.95
2022-11-27T19:09:20.713Z,66.32
2022-11-27T19:11:49.465Z,56.65
2022-11-27T19:14:17.804Z,70.43
2022-11-27T19:16:47.013Z,57.38
2022-11-27T19:22:09.143Z,63.97
2022-11-27T19:24:38.739Z,59.15
2022-11-27T19:27:07.386Z,46.63
2022-11-27T19:29:36.139Z,55.15
2022-11-27T19:32:04.617Z,43.58
2022-11-27T19:34:32.799Z,61.38
2022-11-27T19:37:01.277Z,63.83
2022-11-27T19:39:31.355Z,63.60
2022-11-27T19:42:00.437Z,63.72
2022-11-27T19:44:30.253Z,61.58
2022-11-27T19:46:59.760Z,72.38
2022-11-27T19:49:29.254Z,77.60
2022-11-27T19:51:57.847Z,61.53
2022-11-27T19:54:26.706Z,55.00
2022-11-27T19:56:56.977Z,74.40
2022-11-27T19:59:26.375Z,61.80
2022-11-27T20:01:57.604Z,50.22
2022-11-27T20:04:29.778Z,65.07
2022-11-27T20:06:58.176Z,66.13
2022-11-27T20:09:26.488Z,64.53
2022-11-27T20:11:56.134Z,86.95
2022-11-27T20:14:24.461Z,117.38
2022-11-27T20:16:53.328Z,90.82
2022-11-27T20:19:21.514Z,91.07
2022-11-27T20:21:50.924Z,72.28
2022-11-27T20:24:19.698Z,54.10
2022-11-27T20:26:47.989Z,59.97
2022-11-27T20:29:18.227Z,89.65
2022-11-27T20:31:46.373Z,83.75
2022-11-27T20:34:19.950Z,74.07
2022-11-27T20:36:49.760Z,74.10
2022-11-27T20:39:21.528Z,103.25
2022-11-27T20:41:53.499Z,66.28
2022-11-27T20:44:23.672Z,54.42
2022-11-27T20:46:52.255Z,83.35
2022-11-27T20:49:20.667Z,68.53
2022-11-27T20:51:50.541Z,84.90
2022-11-27T20:54:21.627Z,52.83
2022-11-27T20:56:51.338Z,56.75
2022-11-27T20:59:19.997Z,66.32
2022-11-27T21:01:50.110Z,71.70
2022-11-27T21:04:21.816Z,80.22
2022-11-27T21:06:50.560Z,60.25
2022-11-27T21:09:20.607Z,73.40
2022-11-27T21:11:49.459Z,67.55
2022-11-27T21:14:17.930Z,57.03
2022-11-27T21:16:48.679Z,45.75
2022-11-27T21:19:20.806Z,63.35
2022-11-27T21:21:51.560Z,63.75
2022-11-27T21:24:21.121Z,70.55
2022-11-27T21:26:51.231Z,88.00
2022-11-27T21:29:25.288Z,68.93
2022-11-27T21:31:56.970Z,70.63
2022-11-27T21:34:26.983Z,83.47
2022-11-27T21:36:55.483Z,61.13
2022-11-27T21:39:25.839Z,69.13
2022-11-27T21:41:56.332Z,73.60
2022-11-27T21:44:26.033Z,77.80
2022-11-27T21:46:54.648Z,86.72
2022-11-27T21:49:23.387Z,103.93
2022-11-27T21:51:55.073Z,68.45
2022-11-27T21:54:30.843Z,79.63
2022-11-27T21:56:59.296Z,70.13
2022-11-27T21:59:27.549Z,86.72
2022-11-27T22:01:57.271Z,66.53
2022-11-27T22:04:25.714Z,61.65
2022-11-27T22:06:55.616Z,60.85
2022-11-27T22:09:23.640Z,66.35
2022-11-27T22:11:53.445Z,50.92
2022-11-27T22:14:21.634Z,66.95
2022-11-27T22:16:49.764Z,44.33
2022-11-27T22:19:20.083Z,60.03
2022-11-27T22:21:48.389Z,51.85
2022-11-27T22:24:19.595Z,55.08
2022-11-27T22:26:52.123Z,55.58
2022-11-27T22:29:20.483Z,55.35
2022-11-27T22:31:48.639Z,44.63
2022-11-27T22:34:17.072Z,41.63
2022-11-27T22:36:45.739Z,42.95
2022-11-27T22:39:14.481Z,40.42
2022-11-27T22:41:44.439Z,41.28
2022-11-27T22:44:16.529Z,34.70
2022-11-27T22:46:45.712Z,40.30
2022-11-27T22:49:16.756Z,34.67
2022-11-27T22:51:45.513Z,34.95
2022-11-27T22:54:17.187Z,44.38
2022-11-27T22:56:48.174Z,44.72
2022-11-27T22:59:33.813Z,47.08
2022-11-27T23:02:03.670Z,38.13
2022-11-27T23:04:31.880Z,36.08
2022-11-27T23:06:59.990Z,39.72
2022-11-27T23:09:29.559Z,41.03
2022-11-27T23:11:59.161Z,40.38
2022-11-27T23:14:28.036Z,54.38
2022-11-27T23:16:56.304Z,47.60
2022-11-27T23:19:24.488Z,44.13
2022-11-27T23:21:52.742Z,47.13
2022-11-27T23:24:21.217Z,41.40
2022-11-27T23:26:49.320Z,43.67
2022-11-27T23:29:19.027Z,49.53
2022-11-27T23:31:47.159Z,143.05
2022-11-27T23:34:16.369Z,139.55
2022-11-27T23:36:46.341Z,166.13
2022-11-27T23:39:16.415Z,113.78
2022-11-27T23:41:46.415Z,71.57
2022-11-27T23:44:16.237Z,67.80
2022-11-27T23:46:46.589Z,58.42
2022-11-27T23:49:15.387Z,56.63
2022-11-27T23:51:44.573Z,47.42
2022-11-27T23:54:13.634Z,49.35
2022-11-27T23:56:43.433Z,50.70
2022-11-27T23:59:12.106Z,65.97
